createdAt,value
2022-09-03T00:01:28.755Z,2.13
2022-09-03T00:04:30.065Z,2.35
2022-09-03T00:07:28.161Z,2.35
2022-09-03T00:10:27.776Z,1.88
2022-09-03T00:13:24.249Z,3.17
2022-09-03T00:16:21.598Z,2.15
2022-09-03T00:19:12.423Z,2.08
2022-09-03T00:22:17.298Z,2.70
2022-09-03T00:25:14.566Z,2.15
2022-09-03T00:28:13.565Z,2.25
2022-09-03T00:31:18.294Z,1.80
2022-09-03T00:34:18.213Z,2.03
2022-09-03T00:37:15.298Z,1.70
2022-09-03T00:40:16.982Z,1.58
2022-09-03T00:43:19.690Z,2.00
2022-09-03T00:46:24.999Z,1.85
2022-09-03T00:49:36.369Z,1.63
2022-09-03T00:52:45.864Z,2.25
2022-09-03T00:55:51.061Z,2.20
2022-09-03T00:59:05.938Z,2.55
2022-09-03T01:02:13.380Z,2.30
2022-09-03T01:05:12.032Z,1.85
2022-09-03T01:08:32.160Z,1.85
2022-09-03T01:11:35.172Z,2.38
2022-09-03T01:14:44.209Z,2.20
2022-09-03T01:17:55.695Z,2.30
2022-09-03T01:21:06.936Z,2.17
2022-09-03T01:24:47.252Z,2.40
2022-09-03T01:27:52.749Z,2.28
2022-09-03T01:30:49.263Z,2.38
2022-09-03T01:33:48.833Z,2.70
2022-09-03T01:36:52.770Z,2.38
2022-09-03T01:40:02.123Z,2.67
2022-09-03T01:43:10.563Z,2.72
2022-09-03T01:46:07.821Z,2.35
2022-09-03T01:49:12.863Z,2.38
2022-09-03T01:52:07.422Z,2.25
2022-09-03T01:55:13.275Z,2.75
2022-09-03T01:58:12.378Z,2.38
2022-09-03T02:01:08.751Z,2.50
2022-09-03T02:04:00.611Z,2.58
2022-09-03T02:06:53.030Z,2.33
2022-09-03T02:09:43.470Z,2.03
2022-09-03T02:12:38.065Z,2.03
2022-09-03T02:15:31.316Z,1.95
2022-09-03T02:18:25.612Z,1.88
2022-09-03T02:21:20.088Z,1.95
2022-09-03T02:24:10.357Z,1.88
2022-09-03T02:27:00.996Z,1.83
2022-09-03T02:29:50.776Z,2.00
2022-09-03T02:32:39.974Z,1.90
2022-09-03T02:35:30.013Z,2.20
2022-09-03T02:38:22.437Z,2.10
2022-09-03T02:41:15.105Z,2.00
2022-09-03T02:44:13.963Z,1.83
2022-09-03T02:47:06.978Z,1.83
2022-09-03T02:49:56.091Z,1.88
2022-09-03T02:52:45.254Z,2.00
2022-09-03T02:55:34.654Z,2.00
2022-09-03T02:58:23.923Z,1.63
2022-09-03T03:01:19.651Z,1.88
2022-09-03T03:04:13.385Z,1.80
2022-09-03T03:07:02.631Z,1.85
2022-09-03T03:09:51.988Z,1.73
2022-09-03T03:12:41.175Z,1.98
2022-09-03T03:15:30.325Z,2.05
2022-09-03T03:18:20.856Z,1.77
2022-09-03T03:21:12.947Z,2.03
2022-09-03T03:24:05.162Z,1.90
2022-09-03T03:26:59.279Z,1.70
2022-09-03T03:29:48.455Z,1.98
2022-09-03T03:32:38.201Z,1.92
2022-09-03T03:35:28.850Z,1.90
2022-09-03T03:38:18.215Z,1.63
2022-09-03T03:41:12.320Z,1.88
2022-09-03T03:44:04.016Z,2.67
2022-09-03T03:46:53.483Z,1.73
2022-09-03T03:49:42.581Z,1.95
2022-09-03T03:52:33.169Z,1.73
2022-09-03T03:55:22.850Z,2.00
2022-09-03T03:58:16.199Z,2.00
2022-09-03T04:01:09.059Z,1.83
2022-09-03T04:04:00.614Z,1.90
2022-09-03T04:06:49.882Z,2.05
2022-09-03T04:09:40.497Z,2.05
2022-09-03T04:12:29.619Z,1.60
2022-09-03T04:15:18.900Z,2.10
2022-09-03T04:18:08.478Z,2.05
2022-09-03T04:21:04.171Z,1.73
2022-09-03T04:23:55.172Z,2.20
2022-09-03T04:26:47.716Z,1.83
2022-09-03T04:29:36.914Z,1.77
2022-09-03T04:32:44.418Z,1.95
2022-09-03T04:35:34.177Z,2.03
2022-09-03T04:38:26.545Z,1.77
2022-09-03T04:41:18.103Z,2.20
2022-09-03T04:44:08.761Z,2.35
2022-09-03T04:46:57.975Z,1.83
2022-09-03T04:49:47.174Z,1.90
2022-09-03T04:52:36.462Z,2.05
2022-09-03T04:55:25.832Z,2.13
2022-09-03T04:58:15.015Z,1.73
2022-09-03T05:01:11.274Z,1.95
2022-09-03T05:04:02.301Z,1.80
2022-09-03T05:06:51.492Z,1.90
2022-09-03T05:09:40.637Z,2.58
2022-09-03T05:12:31.751Z,2.03
2022-09-03T05:15:20.844Z,2.33
2022-09-03T05:18:11.341Z,2.58
2022-09-03T05:21:01.760Z,2.08
2022-09-03T05:23:52.908Z,2.30
2022-09-03T05:26:42.200Z,2.10
2022-09-03T05:29:31.322Z,1.95
2022-09-03T05:32:20.527Z,1.90
2022-09-03T05:35:11.945Z,1.92
2022-09-03T05:38:01.741Z,2.03
2022-09-03T05:40:50.905Z,1.80
2022-09-03T05:43:43.033Z,1.83
2022-09-03T05:46:37.725Z,2.10
2022-09-03T05:49:26.925Z,2.13
2022-09-03T05:52:19.235Z,2.05
2022-09-03T05:55:12.864Z,1.80
2022-09-03T05:58:02.711Z,2.10
2022-09-03T06:00:51.923Z,2.08
2022-09-03T06:03:41.852Z,2.13
2022-09-03T06:06:33.716Z,2.15
2022-09-03T06:09:24.496Z,2.47
2022-09-03T06:12:13.638Z,2.00
2022-09-03T06:15:02.962Z,2.28
2022-09-03T06:17:52.174Z,2.25
2022-09-03T06:20:41.415Z,2.03
2022-09-03T06:23:32.122Z,2.85
2022-09-03T06:26:22.891Z,1.98
2022-09-03T06:29:12.514Z,2.13
2022-09-03T06:32:02.206Z,2.10
2022-09-03T06:34:51.442Z,2.50
2022-09-03T06:37:41.167Z,2.30
2022-09-03T06:40:30.747Z,2.55
2022-09-03T06:43:21.433Z,2.30
2022-09-03T06:46:13.506Z,2.67
2022-09-03T06:49:02.914Z,2.10
2022-09-03T06:51:52.333Z,2.05
2022-09-03T06:54:41.595Z,2.08
2022-09-03T06:57:30.736Z,1.90
2022-09-03T07:00:21.789Z,2.10
2022-09-03T07:03:10.867Z,1.95
2022-09-03T07:06:02.662Z,2.00
2022-09-03T07:08:51.901Z,2.00
2022-09-03T07:11:47.137Z,1.83
2022-09-03T07:14:36.490Z,2.28
2022-09-03T07:17:27.004Z,2.33
2022-09-03T07:20:16.327Z,2.88
2022-09-03T07:23:05.598Z,2.55
2022-09-03T07:25:56.979Z,2.85
2022-09-03T07:28:47.470Z,2.50
2022-09-03T07:31:41.244Z,3.13
2022-09-03T07:34:31.906Z,2.00
2022-09-03T07:37:21.289Z,4.60
2022-09-03T07:40:11.613Z,3.30
2022-09-03T07:43:03.460Z,4.45
2022-09-03T07:45:52.826Z,3.92
2022-09-03T07:48:42.293Z,2.90
2022-09-03T07:51:37.346Z,3.25
2022-09-03T07:54:27.420Z,2.40
2022-09-03T07:57:16.808Z,3.53
2022-09-03T08:00:07.862Z,4.90
2022-09-03T08:02:58.082Z,6.28
2022-09-03T08:05:47.608Z,2.40
2022-09-03T08:08:39.616Z,3.75
2022-09-03T08:11:31.353Z,2.30
2022-09-03T08:14:20.642Z,2.47
2022-09-03T08:17:09.819Z,3.70
2022-09-03T08:19:59.131Z,3.40
2022-09-03T08:22:48.425Z,2.05
2022-09-03T08:25:38.937Z,2.22
2022-09-03T08:28:28.218Z,1.90
2022-09-03T08:31:20.128Z,1.88
2022-09-03T08:34:11.763Z,1.73
2022-09-03T08:37:02.324Z,1.73
2022-09-03T08:39:51.483Z,2.10
2022-09-03T08:43:06.920Z,3.28
2022-09-03T08:45:56.549Z,3.60
2022-09-03T08:48:48.626Z,1.95
2022-09-03T08:51:40.429Z,2.00
2022-09-03T08:54:33.517Z,2.03
2022-09-03T08:57:23.369Z,1.90
2022-09-03T09:00:15.809Z,1.85
2022-09-03T09:03:31.092Z,1.88
2022-09-03T09:06:31.165Z,2.20
2022-09-03T09:09:32.931Z,2.22
2022-09-03T09:12:44.236Z,2.23
2022-09-03T09:15:51.693Z,2.15
2022-09-03T09:19:04.856Z,2.30
2022-09-03T09:22:00.229Z,2.30
2022-09-03T09:24:54.349Z,2.10
2022-09-03T09:27:53.499Z,3.35
2022-09-03T09:30:47.729Z,3.33
2022-09-03T09:33:37.615Z,3.28
2022-09-03T09:36:28.132Z,2.15
2022-09-03T09:39:17.604Z,2.30
2022-09-03T09:42:09.575Z,2.45
2022-09-03T09:44:58.995Z,1.90
2022-09-03T09:47:50.293Z,2.70
2022-09-03T09:50:39.481Z,2.80
2022-09-03T09:53:30.186Z,2.90
2022-09-03T09:56:25.354Z,1.95
2022-09-03T09:59:16.112Z,2.38
2022-09-03T10:02:17.080Z,2.10
2022-09-03T10:05:22.326Z,1.90
2022-09-03T10:08:22.600Z,2.35
2022-09-03T10:11:12.911Z,1.80
2022-09-03T10:14:04.386Z,1.85
2022-09-03T10:17:05.364Z,1.30
2022-09-03T10:20:31.171Z,1.88
2022-09-03T10:23:28.129Z,1.60
2022-09-03T10:26:32.100Z,1.58
2022-09-03T10:29:25.943Z,1.77
2022-09-03T10:32:39.359Z,1.90
2022-09-03T10:35:33.666Z,2.13
2022-09-03T10:38:34.158Z,1.92
2022-09-03T10:41:47.450Z,2.97
2022-09-03T10:45:02.205Z,1.80
2022-09-03T10:48:32.755Z,3.85
2022-09-03T10:51:28.866Z,1.58
2022-09-03T10:54:41.479Z,3.42
2022-09-03T10:57:50.130Z,2.25
2022-09-03T11:00:53.548Z,2.97
2022-09-03T11:03:49.360Z,2.22
2022-09-03T11:06:48.428Z,2.50
2022-09-03T11:09:45.214Z,1.70
2022-09-03T11:12:43.447Z,3.28
2022-09-03T11:15:38.936Z,2.28
2022-09-03T11:18:35.535Z,2.28
2022-09-03T11:21:30.010Z,2.30
2022-09-03T11:24:25.176Z,2.10
2022-09-03T11:27:33.165Z,1.98
2022-09-03T11:30:30.174Z,2.10
2022-09-03T11:33:25.603Z,2.80
2022-09-03T11:36:21.865Z,2.15
2022-09-03T11:39:25.160Z,2.50
2022-09-03T11:42:35.220Z,2.78
2022-09-03T11:45:37.637Z,2.53
2022-09-03T11:48:39.889Z,2.20
2022-09-03T11:51:38.107Z,2.10
2022-09-03T11:54:28.515Z,2.05
2022-09-03T11:57:29.228Z,2.40
2022-09-03T12:00:24.888Z,2.00
2022-09-03T12:03:18.783Z,2.10
2022-09-03T12:06:41.471Z,2.15
2022-09-03T12:10:09.787Z,2.08
2022-09-03T12:13:21.567Z,2.53
2022-09-03T12:16:48.964Z,2.20
2022-09-03T12:19:53.497Z,2.35
2022-09-03T12:22:44.819Z,2.60
2022-09-03T12:25:34.397Z,2.20
2022-09-03T12:28:26.127Z,2.40
2022-09-03T12:31:22.890Z,2.47
2022-09-03T12:34:17.789Z,4.78
2022-09-03T12:40:33.821Z,2.63
2022-09-03T12:43:49.913Z,6.28
2022-09-03T12:46:40.086Z,4.18
2022-09-03T12:49:37.778Z,4.82
2022-09-03T12:52:32.920Z,4.75
2022-09-03T12:55:40.433Z,4.82
2022-09-03T12:58:39.269Z,5.32
2022-09-03T13:01:34.937Z,4.82
2022-09-03T13:04:29.022Z,3.75
2022-09-03T13:07:34.285Z,2.35
2022-09-03T13:10:29.880Z,2.78
2022-09-03T13:13:25.773Z,2.40
2022-09-03T13:17:11.187Z,3.30
2022-09-03T13:20:24.184Z,2.40
2022-09-03T13:24:04.586Z,2.72
2022-09-03T13:27:12.245Z,2.95
2022-09-03T13:30:11.115Z,2.40
2022-09-03T13:33:10.602Z,2.60
2022-09-03T13:36:09.765Z,2.45
2022-09-03T13:39:06.226Z,2.42
2022-09-03T13:42:06.158Z,2.38
2022-09-03T13:45:06.710Z,2.47
2022-09-03T13:48:23.074Z,2.70
2022-09-03T13:51:23.586Z,2.50
2022-09-03T13:54:42.443Z,2.28
2022-09-03T13:57:40.821Z,2.40
2022-09-03T14:00:38.486Z,2.55
2022-09-03T14:03:39.118Z,2.17
2022-09-03T14:06:45.031Z,2.40
2022-09-03T14:09:48.946Z,2.60
2022-09-03T14:12:46.935Z,2.78
2022-09-03T14:15:46.981Z,2.55
2022-09-03T14:18:49.994Z,2.60
2022-09-03T14:21:48.779Z,2.28
2022-09-03T14:24:50.278Z,2.60
2022-09-03T14:27:39.679Z,2.60
2022-09-03T14:30:46.184Z,2.53
2022-09-03T14:33:47.493Z,2.80
2022-09-03T14:36:46.199Z,2.90
2022-09-03T14:39:54.079Z,2.55
2022-09-03T14:43:16.322Z,2.80
2022-09-03T14:46:24.351Z,2.78
2022-09-03T14:49:46.618Z,2.95
2022-09-03T14:52:59.451Z,2.70
2022-09-03T14:56:21.683Z,2.50
2022-09-03T14:59:41.787Z,2.45
2022-09-03T15:03:15.299Z,4.25
2022-09-03T15:06:31.069Z,3.80
2022-09-03T15:09:33.418Z,4.70
2022-09-03T15:12:34.382Z,4.68
2022-09-03T15:15:32.049Z,6.43
2022-09-03T15:18:33.346Z,4.05
2022-09-03T15:21:33.521Z,4.20
2022-09-03T15:24:39.081Z,3.90
2022-09-03T15:27:55.951Z,3.30
2022-09-03T15:30:57.544Z,2.47
2022-09-03T15:33:58.607Z,3.20
2022-09-03T15:36:55.841Z,3.13
2022-09-03T15:39:54.502Z,2.80
2022-09-03T15:42:49.040Z,2.70
2022-09-03T15:45:52.115Z,3.03
2022-09-03T15:48:51.764Z,3.10
2022-09-03T15:51:59.760Z,3.33
2022-09-03T15:55:03.898Z,5.13
2022-09-03T15:58:08.591Z,4.85
2022-09-03T16:01:03.573Z,5.80
2022-09-03T16:04:10.911Z,9.35
2022-09-03T16:07:10.412Z,10.27
2022-09-03T16:10:28.226Z,7.72
2022-09-03T16:13:40.190Z,9.50
2022-09-03T16:16:44.096Z,5.15
2022-09-03T16:19:46.321Z,4.10
2022-09-03T16:22:48.199Z,3.60
2022-09-03T16:25:51.435Z,4.50
2022-09-03T16:28:53.644Z,5.25
2022-09-03T16:32:18.748Z,12.55
2022-09-03T16:35:32.507Z,14.00
2022-09-03T16:38:39.492Z,10.63
2022-09-03T16:41:41.221Z,7.93
2022-09-03T16:44:50.614Z,5.27
2022-09-03T16:47:59.211Z,25.90
2022-09-03T16:51:09.857Z,8.13
2022-09-03T16:54:17.094Z,5.60
2022-09-03T16:57:25.410Z,5.00
2022-09-03T17:00:21.023Z,4.82
2022-09-03T17:03:48.846Z,5.88
2022-09-03T17:07:05.816Z,4.88
2022-09-03T17:10:09.093Z,5.70
2022-09-03T17:13:30.940Z,5.47
2022-09-03T17:16:39.392Z,7.07
2022-09-03T17:19:45.103Z,6.32
2022-09-03T17:22:54.414Z,6.30
2022-09-03T17:26:02.116Z,6.13
2022-09-03T17:29:10.889Z,5.90
2022-09-03T17:32:21.139Z,6.18
2022-09-03T17:35:18.905Z,6.07
2022-09-03T17:38:30.315Z,6.93
2022-09-03T17:41:33.609Z,7.22
2022-09-03T17:44:47.843Z,8.05
2022-09-03T17:48:05.520Z,8.07
2022-09-03T17:51:02.937Z,7.90
2022-09-03T17:54:01.670Z,8.02
2022-09-03T17:57:03.102Z,9.00
2022-09-03T17:59:58.939Z,8.90
2022-09-03T18:02:57.800Z,8.55
2022-09-03T18:05:54.767Z,10.13
2022-09-03T18:08:56.219Z,7.00
2022-09-03T18:11:51.493Z,7.68
2022-09-03T18:14:53.103Z,12.40
2022-09-03T18:17:52.703Z,8.02
2022-09-03T18:21:26.577Z,5.88
2022-09-03T18:24:51.145Z,9.15
2022-09-03T18:28:05.283Z,8.13
2022-09-03T18:31:12.046Z,7.80
2022-09-03T18:34:22.262Z,7.57
2022-09-03T18:37:29.477Z,6.45
2022-09-03T18:40:45.581Z,5.90
2022-09-03T18:44:06.308Z,5.85
2022-09-03T18:51:07.441Z,4.80
2022-09-03T18:54:56.964Z,4.85
2022-09-03T18:58:22.150Z,5.05
2022-09-03T19:01:40.403Z,4.55
2022-09-03T19:05:08.641Z,3.88
2022-09-03T19:08:28.085Z,5.10
2022-09-03T19:11:52.326Z,4.80
2022-09-03T19:15:15.031Z,3.95
2022-09-03T19:18:41.867Z,5.78
2022-09-03T19:21:59.879Z,4.93
2022-09-03T19:25:15.083Z,4.13
2022-09-03T19:28:33.656Z,4.38
2022-09-03T19:32:00.560Z,4.65
2022-09-03T19:35:30.715Z,3.78
2022-09-03T19:38:50.230Z,4.28
2022-09-03T19:42:09.225Z,4.43
2022-09-03T19:45:26.824Z,4.25
2022-09-03T19:48:51.129Z,3.72
2022-09-03T19:52:09.764Z,4.38
2022-09-03T19:55:18.766Z,4.00
2022-09-03T19:58:42.441Z,3.53
2022-09-03T20:01:53.485Z,4.03
2022-09-03T20:05:10.508Z,3.90
2022-09-03T20:08:18.668Z,4.05
2022-09-03T20:11:13.085Z,4.35
2022-09-03T20:14:17.698Z,3.72
2022-09-03T20:17:22.884Z,3.75
2022-09-03T20:20:24.929Z,4.25
2022-09-03T20:23:22.840Z,3.95
2022-09-03T20:26:35.106Z,5.45
2022-09-03T20:29:49.056Z,5.07
2022-09-03T20:33:12.548Z,5.88
2022-09-03T20:36:18.221Z,4.45
2022-09-03T20:39:30.456Z,3.90
2022-09-03T20:42:51.853Z,4.70
2022-09-03T20:46:02.302Z,5.15
2022-09-03T20:49:04.493Z,4.22
2022-09-03T20:52:07.412Z,6.17
2022-09-03T20:58:07.106Z,4.80
2022-09-03T21:01:06.412Z,5.68
2022-09-03T21:04:15.681Z,5.38
2022-09-03T21:07:18.005Z,4.13
2022-09-03T21:10:17.965Z,4.60
2022-09-03T21:13:21.163Z,5.28
2022-09-03T21:16:34.457Z,4.25
2022-09-03T21:19:46.235Z,3.95
2022-09-03T21:22:52.624Z,4.72
2022-09-03T21:25:49.884Z,5.50
2022-09-03T21:28:42.907Z,5.72
2022-09-03T21:31:41.787Z,5.22
2022-09-03T21:34:39.325Z,5.00
2022-09-03T21:37:29.012Z,5.22
2022-09-03T21:40:24.270Z,4.70
2022-09-03T21:43:20.327Z,4.35
2022-09-03T21:46:16.204Z,5.43
2022-09-03T21:49:11.044Z,5.35
2022-09-03T21:52:05.628Z,5.60
2022-09-03T21:54:55.177Z,5.15
2022-09-03T21:58:03.542Z,4.80
2022-09-03T22:00:59.891Z,4.80
2022-09-03T22:03:49.129Z,4.50
2022-09-03T22:06:54.659Z,4.97
2022-09-03T22:09:53.609Z,5.28
2022-09-03T22:12:57.020Z,6.07
2022-09-03T22:15:51.316Z,5.13
2022-09-03T22:18:41.262Z,6.18
2022-09-03T22:21:40.078Z,4.47
2022-09-03T22:24:43.626Z,6.03
2022-09-03T22:27:44.668Z,4.93
2022-09-03T22:30:47.024Z,5.43
2022-09-03T22:33:48.030Z,5.15
2022-09-03T22:36:44.682Z,5.63
2022-09-03T22:39:39.300Z,6.22
2022-09-03T22:42:53.610Z,5.65
2022-09-03T22:46:08.097Z,6.00
2022-09-03T22:49:22.074Z,6.60
2022-09-03T22:52:29.204Z,5.85
2022-09-03T22:55:25.396Z,5.68
2022-09-03T22:58:22.256Z,5.53
2022-09-03T23:01:20.785Z,6.22
2022-09-03T23:04:20.884Z,5.40
2022-09-03T23:07:23.399Z,5.15
2022-09-03T23:10:24.389Z,4.97
2022-09-03T23:13:22.071Z,5.90
2022-09-03T23:16:30.388Z,6.43
2022-09-03T23:19:30.503Z,4.80
2022-09-03T23:22:25.782Z,4.97
2022-09-03T23:25:21.138Z,8.10
2022-09-03T23:28:24.125Z,6.35
2022-09-03T23:34:11.979Z,4.82
2022-09-03T23:37:42.015Z,6.82
2022-09-03T23:40:48.673Z,5.57
2022-09-03T23:44:05.175Z,6.10
2022-09-03T23:47:12.172Z,6.28
2022-09-03T23:50:17.814Z,6.70
2022-09-03T23:53:24.445Z,7.57
2022-09-03T23:56:46.789Z,8.65
